sensor_id;sensor_type;location;lat;lon;timestamp;P1;durP1;ratioP1;P2;durP2;ratioP2
52942;SDS011;38809;53.300;6.614;2023-12-07T00:01:03;12.02;;;9.77;;
52942;SDS011;38809;53.300;6.614;2023-12-07T00:03:30;12.75;;;10.48;;
52942;SDS011;38809;53.300;6.614;2023-12-07T00:05:56;13.93;;;9.88;;
52942;SDS011;38809;53.300;6.614;2023-12-07T00:08:22;12.05;;;9.77;;
52942;SDS011;38809;53.300;6.614;2023-12-07T00:10:48;11.90;;;9.70;;
52942;SDS011;38809;53.300;6.614;2023-12-07T00:13:14;13.70;;;10.93;;
52942;SDS011;38809;53.300;6.614;2023-12-07T00:15:40;12.80;;;9.93;;
52942;SDS011;38809;53.300;6.614;2023-12-07T00:18:06;12.68;;;10.63;;
52942;SDS011;38809;53.300;6.614;2023-12-07T00:20:33;12.27;;;10.02;;
52942;SDS011;38809;53.300;6.614;2023-12-07T00:25:25;11.77;;;9.98;;
52942;SDS011;38809;53.300;6.614;2023-12-07T00:27:52;11.82;;;9.50;;
52942;SDS011;38809;53.300;6.614;2023-12-07T00:30:18;13.75;;;10.80;;
52942;SDS011;38809;53.300;6.614;2023-12-07T00:32:44;11.75;;;9.40;;
52942;SDS011;38809;53.300;6.614;2023-12-07T00:35:11;11.10;;;9.15;;
52942;SDS011;38809;53.300;6.614;2023-12-07T00:37:37;12.13;;;9.70;;
52942;SDS011;38809;53.300;6.614;2023-12-07T00:40:03;12.77;;;10.75;;
52942;SDS011;38809;53.300;6.614;2023-12-07T00:42:30;11.10;;;9.60;;
52942;SDS011;38809;53.300;6.614;2023-12-07T00:47:22;10.80;;;9.30;;
52942;SDS011;38809;53.300;6.614;2023-12-07T00:49:48;12.07;;;9.80;;
52942;SDS011;38809;53.300;6.614;2023-12-07T00:52:14;10.80;;;9.13;;
52942;SDS011;38809;53.300;6.614;2023-12-07T00:54:40;11.13;;;9.70;;
52942;SDS011;38809;53.300;6.614;2023-12-07T00:57:06;12.10;;;9.05;;
52942;SDS011;38809;53.300;6.614;2023-12-07T00:59:32;10.85;;;9.38;;
52942;SDS011;38809;53.300;6.614;2023-12-07T01:02:08;13.02;;;10.57;;
52942;SDS011;38809;53.300;6.614;2023-12-07T01:04:34;12.00;;;9.25;;
52942;SDS011;38809;53.300;6.614;2023-12-07T01:07:00;11.65;;;9.13;;
52942;SDS011;38809;53.300;6.614;2023-12-07T01:09:26;9.68;;;8.40;;
52942;SDS011;38809;53.300;6.614;2023-12-07T01:11:53;11.95;;;9.95;;
52942;SDS011;38809;53.300;6.614;2023-12-07T01:14:19;12.00;;;10.00;;
52942;SDS011;38809;53.300;6.614;2023-12-07T01:16:45;11.23;;;8.98;;
52942;SDS011;38809;53.300;6.614;2023-12-07T01:19:11;11.68;;;9.20;;
52942;SDS011;38809;53.300;6.614;2023-12-07T01:21:39;12.43;;;8.75;;
52942;SDS011;38809;53.300;6.614;2023-12-07T01:24:06;10.90;;;8.95;;
52942;SDS011;38809;53.300;6.614;2023-12-07T01:26:32;12.95;;;10.73;;
52942;SDS011;38809;53.300;6.614;2023-12-07T01:28:58;11.98;;;9.95;;
52942;SDS011;38809;53.300;6.614;2023-12-07T01:31:24;12.40;;;10.07;;
52942;SDS011;38809;53.300;6.614;2023-12-07T01:33:51;11.05;;;8.80;;
52942;SDS011;38809;53.300;6.614;2023-12-07T01:36:17;12.10;;;9.70;;
52942;SDS011;38809;53.300;6.614;2023-12-07T01:38:43;11.20;;;9.50;;
52942;SDS011;38809;53.300;6.614;2023-12-07T01:41:09;11.40;;;8.68;;
52942;SDS011;38809;53.300;6.614;2023-12-07T01:43:35;11.23;;;8.90;;
52942;SDS011;38809;53.300;6.614;2023-12-07T01:46:01;10.82;;;9.02;;
52942;SDS011;38809;53.300;6.614;2023-12-07T01:48:28;12.05;;;9.57;;
52942;SDS011;38809;53.300;6.614;2023-12-07T01:50:55;12.70;;;9.20;;
52942;SDS011;38809;53.300;6.614;2023-12-07T01:53:23;10.90;;;9.02;;
52942;SDS011;38809;53.300;6.614;2023-12-07T01:55:50;10.20;;;8.55;;
52942;SDS011;38809;53.300;6.614;2023-12-07T01:58:17;10.88;;;9.05;;
52942;SDS011;38809;53.300;6.614;2023-12-07T02:00:43;13.73;;;10.15;;
52942;SDS011;38809;53.300;6.614;2023-12-07T02:03:10;13.77;;;10.55;;
52942;SDS011;38809;53.300;6.614;2023-12-07T02:05:37;12.65;;;9.90;;
52942;SDS011;38809;53.300;6.614;2023-12-07T02:08:03;11.93;;;10.00;;
52942;SDS011;38809;53.300;6.614;2023-12-07T02:10:29;12.00;;;9.85;;
52942;SDS011;38809;53.300;6.614;2023-12-07T02:12:56;11.30;;;9.43;;
52942;SDS011;38809;53.300;6.614;2023-12-07T02:15:22;10.60;;;8.65;;
52942;SDS011;38809;53.300;6.614;2023-12-07T02:23:03;10.23;;;8.63;;
52942;SDS011;38809;53.300;6.614;2023-12-07T02:25:52;12.20;;;8.90;;
52942;SDS011;38809;53.300;6.614;2023-12-07T02:28:16;11.07;;;8.65;;
52942;SDS011;38809;53.300;6.614;2023-12-07T02:30:43;12.70;;;9.65;;
52942;SDS011;38809;53.300;6.614;2023-12-07T02:35:35;10.52;;;8.52;;
52942;SDS011;38809;53.300;6.614;2023-12-07T02:38:02;10.60;;;8.60;;
52942;SDS011;38809;53.300;6.614;2023-12-07T02:40:28;11.95;;;9.15;;
52942;SDS011;38809;53.300;6.614;2023-12-07T02:45:21;11.55;;;8.88;;
52942;SDS011;38809;53.300;6.614;2023-12-07T02:47:47;11.13;;;8.35;;
52942;SDS011;38809;53.300;6.614;2023-12-07T02:50:13;11.27;;;8.02;;
52942;SDS011;38809;53.300;6.614;2023-12-07T02:52:40;12.20;;;8.82;;
52942;SDS011;38809;53.300;6.614;2023-12-07T02:55:06;10.27;;;8.95;;
52942;SDS011;38809;53.300;6.614;2023-12-07T02:57:34;10.80;;;7.97;;
52942;SDS011;38809;53.300;6.614;2023-12-07T03:00:00;11.10;;;8.77;;
52942;SDS011;38809;53.300;6.614;2023-12-07T03:02:31;11.38;;;8.68;;
52942;SDS011;38809;53.300;6.614;2023-12-07T03:04:57;9.77;;;7.90;;
52942;SDS011;38809;53.300;6.614;2023-12-07T03:07:23;10.55;;;8.15;;
52942;SDS011;38809;53.300;6.614;2023-12-07T03:09:49;10.80;;;8.02;;
52942;SDS011;38809;53.300;6.614;2023-12-07T03:12:15;10.57;;;8.68;;
52942;SDS011;38809;53.300;6.614;2023-12-07T03:14:41;11.60;;;8.82;;
52942;SDS011;38809;53.300;6.614;2023-12-07T03:17:10;10.13;;;8.43;;
52942;SDS011;38809;53.300;6.614;2023-12-07T03:19:39;11.48;;;8.57;;
52942;SDS011;38809;53.300;6.614;2023-12-07T03:22:06;10.52;;;8.35;;
52942;SDS011;38809;53.300;6.614;2023-12-07T03:24:35;10.63;;;9.02;;
52942;SDS011;38809;53.300;6.614;2023-12-07T03:27:02;11.18;;;8.75;;
52942;SDS011;38809;53.300;6.614;2023-12-07T03:29:28;10.43;;;8.32;;
52942;SDS011;38809;53.300;6.614;2023-12-07T03:31:54;11.25;;;9.13;;
52942;SDS011;38809;53.300;6.614;2023-12-07T03:34:20;12.63;;;8.23;;
52942;SDS011;38809;53.300;6.614;2023-12-07T03:36:47;12.63;;;9.40;;
52942;SDS011;38809;53.300;6.614;2023-12-07T03:39:14;11.38;;;8.77;;
52942;SDS011;38809;53.300;6.614;2023-12-07T03:44:06;11.05;;;8.77;;
52942;SDS011;38809;53.300;6.614;2023-12-07T03:46:32;9.32;;;8.07;;
52942;SDS011;38809;53.300;6.614;2023-12-07T03:48:59;11.20;;;8.30;;
52942;SDS011;38809;53.300;6.614;2023-12-07T03:51:26;10.77;;;8.10;;
52942;SDS011;38809;53.300;6.614;2023-12-07T03:53:52;10.75;;;8.40;;
52942;SDS011;38809;53.300;6.614;2023-12-07T03:56:25;10.38;;;8.07;;
52942;SDS011;38809;53.300;6.614;2023-12-07T03:58:52;10.85;;;8.63;;
52942;SDS011;38809;53.300;6.614;2023-12-07T04:01:21;9.85;;;7.68;;
52942;SDS011;38809;53.300;6.614;2023-12-07T04:03:48;11.38;;;7.68;;
52942;SDS011;38809;53.300;6.614;2023-12-07T04:06:14;10.95;;;8.43;;
52942;SDS011;38809;53.300;6.614;2023-12-07T04:08:41;10.85;;;8.35;;
52942;SDS011;38809;53.300;6.614;2023-12-07T04:11:07;9.82;;;7.97;;
52942;SDS011;38809;53.300;6.614;2023-12-07T04:13:33;10.02;;;7.55;;
52942;SDS011;38809;53.300;6.614;2023-12-07T04:16:00;11.10;;;9.00;;
52942;SDS011;38809;53.300;6.614;2023-12-07T04:18:26;9.57;;;8.38;;
52942;SDS011;38809;53.300;6.614;2023-12-07T04:20:52;8.88;;;7.30;;
52942;SDS011;38809;53.300;6.614;2023-12-07T04:23:18;11.98;;;7.07;;
52942;SDS011;38809;53.300;6.614;2023-12-07T04:25:45;8.95;;;7.20;;
52942;SDS011;38809;53.300;6.614;2023-12-07T04:28:11;10.80;;;8.30;;
52942;SDS011;38809;53.300;6.614;2023-12-07T04:30:37;10.10;;;7.38;;
52942;SDS011;38809;53.300;6.614;2023-12-07T04:33:03;9.93;;;7.55;;
52942;SDS011;38809;53.300;6.614;2023-12-07T04:35:30;9.40;;;7.70;;
52942;SDS011;38809;53.300;6.614;2023-12-07T04:37:56;9.10;;;7.07;;
52942;SDS011;38809;53.300;6.614;2023-12-07T04:40:22;8.93;;;6.85;;
52942;SDS011;38809;53.300;6.614;2023-12-07T04:42:49;11.63;;;7.95;;
52942;SDS011;38809;53.300;6.614;2023-12-07T04:45:15;11.43;;;8.02;;
52942;SDS011;38809;53.300;6.614;2023-12-07T04:47:41;10.85;;;8.13;;
52942;SDS011;38809;53.300;6.614;2023-12-07T04:50:07;8.90;;;7.18;;
52942;SDS011;38809;53.300;6.614;2023-12-07T04:52:34;10.45;;;7.40;;
52942;SDS011;38809;53.300;6.614;2023-12-07T04:55:01;8.95;;;7.03;;
52942;SDS011;38809;53.300;6.614;2023-12-07T04:57:27;8.93;;;6.85;;
52942;SDS011;38809;53.300;6.614;2023-12-07T04:59:53;9.13;;;7.57;;
52942;SDS011;38809;53.300;6.614;2023-12-07T05:02:19;10.23;;;7.25;;
52942;SDS011;38809;53.300;6.614;2023-12-07T05:04:45;8.52;;;6.57;;
52942;SDS011;38809;53.300;6.614;2023-12-07T05:07:12;11.30;;;7.13;;
52942;SDS011;38809;53.300;6.614;2023-12-07T05:09:38;9.27;;;7.53;;
52942;SDS011;38809;53.300;6.614;2023-12-07T05:12:05;8.80;;;7.30;;
52942;SDS011;38809;53.300;6.614;2023-12-07T05:14:31;10.25;;;7.07;;
52942;SDS011;38809;53.300;6.614;2023-12-07T05:16:58;9.45;;;6.75;;
52942;SDS011;38809;53.300;6.614;2023-12-07T05:19:24;8.95;;;5.85;;
52942;SDS011;38809;53.300;6.614;2023-12-07T05:24:17;8.93;;;6.18;;
52942;SDS011;38809;53.300;6.614;2023-12-07T05:26:44;7.70;;;6.20;;
52942;SDS011;38809;53.300;6.614;2023-12-07T05:29:17;7.32;;;6.28;;
52942;SDS011;38809;53.300;6.614;2023-12-07T05:31:44;8.98;;;5.88;;
52942;SDS011;38809;53.300;6.614;2023-12-07T05:34:10;7.97;;;6.68;;
52942;SDS011;38809;53.300;6.614;2023-12-07T05:36:36;8.05;;;6.30;;
52942;SDS011;38809;53.300;6.614;2023-12-07T05:39:02;7.43;;;6.40;;
52942;SDS011;38809;53.300;6.614;2023-12-07T05:41:32;8.43;;;6.60;;
52942;SDS011;38809;53.300;6.614;2023-12-07T05:43:58;8.82;;;6.60;;
52942;SDS011;38809;53.300;6.614;2023-12-07T05:46:24;8.35;;;7.13;;
52942;SDS011;38809;53.300;6.614;2023-12-07T05:48:50;7.88;;;6.38;;
52942;SDS011;38809;53.300;6.614;2023-12-07T05:51:16;9.32;;;7.03;;
52942;SDS011;38809;53.300;6.614;2023-12-07T05:53:43;9.73;;;6.93;;
52942;SDS011;38809;53.300;6.614;2023-12-07T05:56:10;8.23;;;6.57;;
52942;SDS011;38809;53.300;6.614;2023-12-07T05:58:36;7.70;;;6.55;;
52942;SDS011;38809;53.300;6.614;2023-12-07T06:01:02;10.48;;;7.30;;
52942;SDS011;38809;53.300;6.614;2023-12-07T06:03:29;9.77;;;6.97;;
52942;SDS011;38809;53.300;6.614;2023-12-07T06:05:55;8.35;;;6.47;;
52942;SDS011;38809;53.300;6.614;2023-12-07T06:08:22;8.63;;;7.00;;
52942;SDS011;38809;53.300;6.614;2023-12-07T06:10:48;9.95;;;7.47;;
52942;SDS011;38809;53.300;6.614;2023-12-07T06:13:14;9.77;;;7.47;;
52942;SDS011;38809;53.300;6.614;2023-12-07T06:15:40;9.90;;;7.78;;
52942;SDS011;38809;53.300;6.614;2023-12-07T06:18:07;10.00;;;6.88;;
52942;SDS011;38809;53.300;6.614;2023-12-07T06:20:33;10.02;;;7.75;;
52942;SDS011;38809;53.300;6.614;2023-12-07T06:23:00;10.82;;;7.25;;
52942;SDS011;38809;53.300;6.614;2023-12-07T06:25:27;10.43;;;7.47;;
52942;SDS011;38809;53.300;6.614;2023-12-07T06:27:53;9.23;;;7.43;;
52942;SDS011;38809;53.300;6.614;2023-12-07T06:30:21;11.30;;;7.45;;
52942;SDS011;38809;53.300;6.614;2023-12-07T06:32:47;11.38;;;8.85;;
52942;SDS011;38809;53.300;6.614;2023-12-07T06:35:13;9.30;;;7.68;;
52942;SDS011;38809;53.300;6.614;2023-12-07T06:37:40;10.77;;;8.00;;
52942;SDS011;38809;53.300;6.614;2023-12-07T06:40:08;11.40;;;8.45;;
52942;SDS011;38809;53.300;6.614;2023-12-07T06:42:35;9.98;;;8.25;;
52942;SDS011;38809;53.300;6.614;2023-12-07T06:45:02;12.40;;;9.23;;
52942;SDS011;38809;53.300;6.614;2023-12-07T06:47:28;11.23;;;9.20;;
52942;SDS011;38809;53.300;6.614;2023-12-07T06:49:54;13.75;;;8.40;;
52942;SDS011;38809;53.300;6.614;2023-12-07T06:52:21;11.60;;;8.63;;
52942;SDS011;38809;53.300;6.614;2023-12-07T06:54:47;12.48;;;8.25;;
52942;SDS011;38809;53.300;6.614;2023-12-07T06:57:13;11.25;;;9.18;;
52942;SDS011;38809;53.300;6.614;2023-12-07T06:59:40;10.80;;;8.23;;
52942;SDS011;38809;53.300;6.614;2023-12-07T07:02:06;11.00;;;7.28;;
52942;SDS011;38809;53.300;6.614;2023-12-07T07:04:32;11.50;;;8.38;;
52942;SDS011;38809;53.300;6.614;2023-12-07T07:06:58;10.57;;;8.23;;
52942;SDS011;38809;53.300;6.614;2023-12-07T07:09:24;12.02;;;8.38;;
52942;SDS011;38809;53.300;6.614;2023-12-07T07:11:50;10.25;;;7.82;;
52942;SDS011;38809;53.300;6.614;2023-12-07T07:14:18;11.77;;;8.27;;
52942;SDS011;38809;53.300;6.614;2023-12-07T07:16:44;11.02;;;7.43;;
52942;SDS011;38809;53.300;6.614;2023-12-07T07:19:10;10.40;;;8.35;;
52942;SDS011;38809;53.300;6.614;2023-12-07T07:21:36;10.63;;;7.90;;
52942;SDS011;38809;53.300;6.614;2023-12-07T07:24:02;9.73;;;7.03;;
52942;SDS011;38809;53.300;6.614;2023-12-07T07:26:28;9.65;;;7.72;;
52942;SDS011;38809;53.300;6.614;2023-12-07T07:28:55;10.80;;;8.85;;
52942;SDS011;38809;53.300;6.614;2023-12-07T07:31:21;12.05;;;7.97;;
52942;SDS011;38809;53.300;6.614;2023-12-07T07:33:47;10.23;;;7.10;;
52942;SDS011;38809;53.300;6.614;2023-12-07T07:36:13;11.98;;;8.38;;
52942;SDS011;38809;53.300;6.614;2023-12-07T07:38:40;11.35;;;8.82;;
52942;SDS011;38809;53.300;6.614;2023-12-07T07:41:06;10.60;;;7.85;;
52942;SDS011;38809;53.300;6.614;2023-12-07T07:43:32;11.65;;;8.77;;
52942;SDS011;38809;53.300;6.614;2023-12-07T07:46:02;11.75;;;8.57;;
52942;SDS011;38809;53.300;6.614;2023-12-07T07:48:29;12.02;;;8.05;;
52942;SDS011;38809;53.300;6.614;2023-12-07T07:50:55;10.02;;;7.35;;
52942;SDS011;38809;53.300;6.614;2023-12-07T07:53:21;12.32;;;9.27;;
52942;SDS011;38809;53.300;6.614;2023-12-07T07:55:47;11.35;;;7.90;;
52942;SDS011;38809;53.300;6.614;2023-12-07T07:58:13;12.68;;;9.25;;
52942;SDS011;38809;53.300;6.614;2023-12-07T08:00:39;11.73;;;9.45;;
52942;SDS011;38809;53.300;6.614;2023-12-07T08:03:05;13.05;;;9.48;;
52942;SDS011;38809;53.300;6.614;2023-12-07T08:05:32;11.70;;;8.35;;
52942;SDS011;38809;53.300;6.614;2023-12-07T08:07:58;11.95;;;8.93;;
52942;SDS011;38809;53.300;6.614;2023-12-07T08:10:24;12.85;;;9.85;;
52942;SDS011;38809;53.300;6.614;2023-12-07T08:12:50;11.57;;;8.73;;
52942;SDS011;38809;53.300;6.614;2023-12-07T08:15:24;12.05;;;9.32;;
52942;SDS011;38809;53.300;6.614;2023-12-07T08:17:50;12.98;;;10.05;;
52942;SDS011;38809;53.300;6.614;2023-12-07T08:22:43;10.80;;;7.60;;
52942;SDS011;38809;53.300;6.614;2023-12-07T08:25:15;10.77;;;7.65;;
52942;SDS011;38809;53.300;6.614;2023-12-07T08:27:42;12.77;;;9.02;;
52942;SDS011;38809;53.300;6.614;2023-12-07T08:30:12;13.57;;;9.50;;
52942;SDS011;38809;53.300;6.614;2023-12-07T08:32:38;11.38;;;8.80;;
52942;SDS011;38809;53.300;6.614;2023-12-07T08:35:05;12.63;;;9.63;;
52942;SDS011;38809;53.300;6.614;2023-12-07T08:37:32;13.57;;;9.88;;
52942;SDS011;38809;53.300;6.614;2023-12-07T08:40:01;14.02;;;10.55;;
52942;SDS011;38809;53.300;6.614;2023-12-07T08:42:27;12.48;;;9.40;;
52942;SDS011;38809;53.300;6.614;2023-12-07T08:44:58;14.02;;;9.93;;
52942;SDS011;38809;53.300;6.614;2023-12-07T08:47:25;11.48;;;9.00;;
52942;SDS011;38809;53.300;6.614;2023-12-07T08:49:52;13.35;;;9.82;;
52942;SDS011;38809;53.300;6.614;2023-12-07T08:52:19;11.18;;;8.85;;
52942;SDS011;38809;53.300;6.614;2023-12-07T08:54:46;14.18;;;9.50;;
52942;SDS011;38809;53.300;6.614;2023-12-07T08:57:12;13.15;;;9.45;;
52942;SDS011;38809;53.300;6.614;2023-12-07T08:59:38;12.68;;;9.38;;
52942;SDS011;38809;53.300;6.614;2023-12-07T09:02:06;12.25;;;9.15;;
52942;SDS011;38809;53.300;6.614;2023-12-07T09:04:33;12.93;;;9.88;;
52942;SDS011;38809;53.300;6.614;2023-12-07T09:06:59;12.57;;;9.82;;
52942;SDS011;38809;53.300;6.614;2023-12-07T09:09:25;13.38;;;10.55;;
52942;SDS011;38809;53.300;6.614;2023-12-07T09:11:51;12.30;;;9.75;;
52942;SDS011;38809;53.300;6.614;2023-12-07T09:14:18;11.07;;;9.05;;
52942;SDS011;38809;53.300;6.614;2023-12-07T09:16:44;13.18;;;9.57;;
52942;SDS011;38809;53.300;6.614;2023-12-07T09:19:11;12.85;;;9.80;;
52942;SDS011;38809;53.300;6.614;2023-12-07T09:21:40;13.85;;;9.65;;
52942;SDS011;38809;53.300;6.614;2023-12-07T09:24:06;13.07;;;9.40;;
52942;SDS011;38809;53.300;6.614;2023-12-07T09:26:38;13.65;;;10.27;;
52942;SDS011;38809;53.300;6.614;2023-12-07T09:29:05;15.02;;;11.02;;
52942;SDS011;38809;53.300;6.614;2023-12-07T09:31:34;14.25;;;10.50;;
52942;SDS011;38809;53.300;6.614;2023-12-07T09:34:00;13.65;;;10.35;;
52942;SDS011;38809;53.300;6.614;2023-12-07T09:36:26;15.65;;;11.30;;
52942;SDS011;38809;53.300;6.614;2023-12-07T09:41:28;14.52;;;10.45;;
52942;SDS011;38809;53.300;6.614;2023-12-07T09:43:54;15.57;;;11.13;;
52942;SDS011;38809;53.300;6.614;2023-12-07T09:48:47;14.25;;;10.18;;
52942;SDS011;38809;53.300;6.614;2023-12-07T09:51:17;13.75;;;10.68;;
52942;SDS011;38809;53.300;6.614;2023-12-07T09:53:44;13.40;;;9.82;;
52942;SDS011;38809;53.300;6.614;2023-12-07T09:56:11;14.68;;;9.77;;
52942;SDS011;38809;53.300;6.614;2023-12-07T09:58:39;13.15;;;9.82;;
52942;SDS011;38809;53.300;6.614;2023-12-07T10:01:07;14.63;;;9.80;;
52942;SDS011;38809;53.300;6.614;2023-12-07T10:03:34;12.93;;;9.40;;
52942;SDS011;38809;53.300;6.614;2023-12-07T10:06:00;12.13;;;9.38;;
52942;SDS011;38809;53.300;6.614;2023-12-07T10:11:03;12.52;;;9.50;;
52942;SDS011;38809;53.300;6.614;2023-12-07T10:13:30;11.82;;;8.85;;
52942;SDS011;38809;53.300;6.614;2023-12-07T10:16:06;13.55;;;8.98;;
52942;SDS011;38809;53.300;6.614;2023-12-07T10:18:39;12.43;;;8.68;;
52942;SDS011;38809;53.300;6.614;2023-12-07T10:21:06;13.05;;;8.88;;
52942;SDS011;38809;53.300;6.614;2023-12-07T10:23:35;13.55;;;8.98;;
52942;SDS011;38809;53.300;6.614;2023-12-07T10:26:01;13.77;;;10.05;;
52942;SDS011;38809;53.300;6.614;2023-12-07T10:28:27;12.57;;;8.15;;
52942;SDS011;38809;53.300;6.614;2023-12-07T10:30:54;13.43;;;9.55;;
52942;SDS011;38809;53.300;6.614;2023-12-07T10:33:26;14.25;;;10.02;;
52942;SDS011;38809;53.300;6.614;2023-12-07T10:35:52;13.85;;;10.30;;
52942;SDS011;38809;53.300;6.614;2023-12-07T10:38:21;14.32;;;10.38;;
52942;SDS011;38809;53.300;6.614;2023-12-07T10:40:47;15.85;;;11.77;;
52942;SDS011;38809;53.300;6.614;2023-12-07T10:43:15;14.88;;;11.85;;
52942;SDS011;38809;53.300;6.614;2023-12-07T10:45:41;14.63;;;11.30;;
52942;SDS011;38809;53.300;6.614;2023-12-07T10:48:09;16.40;;;12.20;;
52942;SDS011;38809;53.300;6.614;2023-12-07T10:50:42;15.65;;;11.45;;
52942;SDS011;38809;53.300;6.614;2023-12-07T10:53:09;15.75;;;12.15;;
52942;SDS011;38809;53.300;6.614;2023-12-07T10:55:41;15.70;;;11.88;;
52942;SDS011;38809;53.300;6.614;2023-12-07T10:58:08;14.82;;;12.10;;
52942;SDS011;38809;53.300;6.614;2023-12-07T11:00:44;16.77;;;12.23;;
52942;SDS011;38809;53.300;6.614;2023-12-07T11:03:13;15.68;;;12.38;;
52942;SDS011;38809;53.300;6.614;2023-12-07T11:05:41;17.25;;;12.02;;
52942;SDS011;38809;53.300;6.614;2023-12-07T11:08:09;15.63;;;11.93;;
52942;SDS011;38809;53.300;6.614;2023-12-07T11:13:35;16.08;;;12.35;;
52942;SDS011;38809;53.300;6.614;2023-12-07T11:16:02;16.15;;;11.45;;
52942;SDS011;38809;53.300;6.614;2023-12-07T11:18:35;15.93;;;11.90;;
52942;SDS011;38809;53.300;6.614;2023-12-07T11:21:03;15.70;;;11.93;;
52942;SDS011;38809;53.300;6.614;2023-12-07T11:23:30;15.35;;;11.63;;
52942;SDS011;38809;53.300;6.614;2023-12-07T11:26:02;14.30;;;11.07;;
52942;SDS011;38809;53.300;6.614;2023-12-07T11:28:37;15.07;;;11.30;;
52942;SDS011;38809;53.300;6.614;2023-12-07T11:31:05;17.00;;;12.75;;
52942;SDS011;38809;53.300;6.614;2023-12-07T11:33:32;17.85;;;12.88;;
52942;SDS011;38809;53.300;6.614;2023-12-07T11:38:28;15.43;;;12.73;;
52942;SDS011;38809;53.300;6.614;2023-12-07T11:40:55;15.10;;;11.68;;
52942;SDS011;38809;53.300;6.614;2023-12-07T11:46:09;14.40;;;11.40;;
52942;SDS011;38809;53.300;6.614;2023-12-07T11:48:36;15.55;;;12.02;;
52942;SDS011;38809;53.300;6.614;2023-12-07T11:51:04;16.67;;;12.65;;
52942;SDS011;38809;53.300;6.614;2023-12-07T11:53:31;16.55;;;11.60;;
52942;SDS011;38809;53.300;6.614;2023-12-07T11:56:05;18.17;;;11.18;;
52942;SDS011;38809;53.300;6.614;2023-12-07T11:58:32;15.48;;;10.85;;
52942;SDS011;38809;53.300;6.614;2023-12-07T12:00:58;13.20;;;10.45;;
52942;SDS011;38809;53.300;6.614;2023-12-07T12:03:28;13.77;;;10.70;;
52942;SDS011;38809;53.300;6.614;2023-12-07T12:06:01;13.95;;;11.05;;
52942;SDS011;38809;53.300;6.614;2023-12-07T12:08:28;13.07;;;9.95;;
52942;SDS011;38809;53.300;6.614;2023-12-07T12:10:54;13.25;;;10.05;;
52942;SDS011;38809;53.300;6.614;2023-12-07T12:13:28;13.88;;;10.50;;
52942;SDS011;38809;53.300;6.614;2023-12-07T12:15:57;15.02;;;10.65;;
52942;SDS011;38809;53.300;6.614;2023-12-07T12:18:23;13.55;;;10.52;;
52942;SDS011;38809;53.300;6.614;2023-12-07T12:20:51;14.95;;;11.27;;
52942;SDS011;38809;53.300;6.614;2023-12-07T12:23:17;14.50;;;10.35;;
52942;SDS011;38809;53.300;6.614;2023-12-07T12:25:44;14.10;;;10.00;;
52942;SDS011;38809;53.300;6.614;2023-12-07T12:28:11;12.75;;;9.35;;
52942;SDS011;38809;53.300;6.614;2023-12-07T12:30:42;15.70;;;10.98;;
52942;SDS011;38809;53.300;6.614;2023-12-07T12:33:08;14.18;;;10.35;;
52942;SDS011;38809;53.300;6.614;2023-12-07T12:35:35;12.35;;;8.80;;
52942;SDS011;38809;53.300;6.614;2023-12-07T12:38:01;12.10;;;9.40;;
52942;SDS011;38809;53.300;6.614;2023-12-07T12:40:33;14.90;;;9.65;;
52942;SDS011;38809;53.300;6.614;2023-12-07T12:43:03;12.35;;;9.80;;
52942;SDS011;38809;53.300;6.614;2023-12-07T12:45:31;17.33;;;10.27;;
52942;SDS011;38809;53.300;6.614;2023-12-07T12:47:58;14.20;;;10.05;;
52942;SDS011;38809;53.300;6.614;2023-12-07T12:50:37;13.70;;;9.95;;
52942;SDS011;38809;53.300;6.614;2023-12-07T12:53:10;11.93;;;9.65;;
52942;SDS011;38809;53.300;6.614;2023-12-07T12:55:39;13.52;;;9.85;;
52942;SDS011;38809;53.300;6.614;2023-12-07T12:58:06;13.52;;;10.20;;
52942;SDS011;38809;53.300;6.614;2023-12-07T13:00:33;13.55;;;10.30;;
52942;SDS011;38809;53.300;6.614;2023-12-07T13:03:03;13.75;;;10.48;;
52942;SDS011;38809;53.300;6.614;2023-12-07T13:05:30;14.45;;;10.63;;
52942;SDS011;38809;53.300;6.614;2023-12-07T13:07:58;14.48;;;10.68;;
52942;SDS011;38809;53.300;6.614;2023-12-07T13:10:25;15.10;;;11.63;;
52942;SDS011;38809;53.300;6.614;2023-12-07T13:12:51;16.92;;;12.48;;
52942;SDS011;38809;53.300;6.614;2023-12-07T13:15:17;16.10;;;11.88;;
52942;SDS011;38809;53.300;6.614;2023-12-07T13:17:45;18.45;;;12.95;;
52942;SDS011;38809;53.300;6.614;2023-12-07T13:20:11;20.35;;;14.32;;
52942;SDS011;38809;53.300;6.614;2023-12-07T13:22:40;18.83;;;13.02;;
52942;SDS011;38809;53.300;6.614;2023-12-07T13:25:08;23.40;;;14.00;;
52942;SDS011;38809;53.300;6.614;2023-12-07T13:27:35;19.63;;;13.73;;
52942;SDS011;38809;53.300;6.614;2023-12-07T13:30:02;22.25;;;13.30;;
52942;SDS011;38809;53.300;6.614;2023-12-07T13:32:35;18.65;;;13.80;;
52942;SDS011;38809;53.300;6.614;2023-12-07T13:35:07;18.52;;;12.70;;
52942;SDS011;38809;53.300;6.614;2023-12-07T13:37:33;18.73;;;13.02;;
52942;SDS011;38809;53.300;6.614;2023-12-07T13:39:59;19.35;;;12.23;;
52942;SDS011;38809;53.300;6.614;2023-12-07T13:42:29;19.05;;;13.23;;
52942;SDS011;38809;53.300;6.614;2023-12-07T13:44:57;16.95;;;12.25;;
52942;SDS011;38809;53.300;6.614;2023-12-07T13:47:26;18.38;;;13.15;;
52942;SDS011;38809;53.300;6.614;2023-12-07T13:50:01;18.10;;;13.23;;
52942;SDS011;38809;53.300;6.614;2023-12-07T13:52:28;17.13;;;12.77;;
52942;SDS011;38809;53.300;6.614;2023-12-07T13:54:54;17.88;;;13.15;;
52942;SDS011;38809;53.300;6.614;2023-12-07T13:57:21;17.58;;;12.30;;
52942;SDS011;38809;53.300;6.614;2023-12-07T13:59:51;19.30;;;11.80;;
52942;SDS011;38809;53.300;6.614;2023-12-07T14:02:18;16.00;;;11.45;;
52942;SDS011;38809;53.300;6.614;2023-12-07T14:04:44;16.02;;;10.65;;
52942;SDS011;38809;53.300;6.614;2023-12-07T14:07:11;18.42;;;11.65;;
52942;SDS011;38809;53.300;6.614;2023-12-07T14:09:39;20.77;;;14.20;;
52942;SDS011;38809;53.300;6.614;2023-12-07T14:12:05;22.65;;;15.32;;
52942;SDS011;38809;53.300;6.614;2023-12-07T14:14:31;21.48;;;15.07;;
52942;SDS011;38809;53.300;6.614;2023-12-07T14:16:58;25.23;;;15.52;;
52942;SDS011;38809;53.300;6.614;2023-12-07T14:19:24;23.10;;;15.88;;
52942;SDS011;38809;53.300;6.614;2023-12-07T14:21:50;22.45;;;14.48;;
52942;SDS011;38809;53.300;6.614;2023-12-07T14:24:16;21.77;;;13.75;;
52942;SDS011;38809;53.300;6.614;2023-12-07T14:26:43;21.55;;;13.50;;
52942;SDS011;38809;53.300;6.614;2023-12-07T14:29:09;26.23;;;16.88;;
52942;SDS011;38809;53.300;6.614;2023-12-07T14:31:40;24.30;;;15.85;;
52942;SDS011;38809;53.300;6.614;2023-12-07T14:34:06;20.55;;;13.32;;
52942;SDS011;38809;53.300;6.614;2023-12-07T14:36:35;24.10;;;14.93;;
52942;SDS011;38809;53.300;6.614;2023-12-07T14:39:04;22.63;;;15.38;;
52942;SDS011;38809;53.300;6.614;2023-12-07T14:41:33;24.02;;;15.82;;
52942;SDS011;38809;53.300;6.614;2023-12-07T14:43:59;24.95;;;16.60;;
52942;SDS011;38809;53.300;6.614;2023-12-07T14:46:25;24.52;;;16.35;;
52942;SDS011;38809;53.300;6.614;2023-12-07T14:48:51;22.98;;;15.07;;
52942;SDS011;38809;53.300;6.614;2023-12-07T14:51:18;28.25;;;16.27;;
52942;SDS011;38809;53.300;6.614;2023-12-07T14:53:47;25.02;;;16.42;;
52942;SDS011;38809;53.300;6.614;2023-12-07T14:56:13;25.08;;;16.38;;
52942;SDS011;38809;53.300;6.614;2023-12-07T14:58:42;25.58;;;15.40;;
52942;SDS011;38809;53.300;6.614;2023-12-07T15:01:21;22.48;;;15.50;;
52942;SDS011;38809;53.300;6.614;2023-12-07T15:03:47;25.77;;;15.75;;
52942;SDS011;38809;53.300;6.614;2023-12-07T15:06:13;28.08;;;16.67;;
52942;SDS011;38809;53.300;6.614;2023-12-07T15:08:39;26.17;;;15.95;;